createdAt,value
2019-03-13T00:00:54.813Z,810.13
2019-03-13T00:01:54.824Z,810.08
2019-03-13T00:02:54.830Z,810.11
2019-03-13T00:03:54.841Z,810.12
2019-03-13T00:04:54.842Z,810.07
2019-03-13T00:05:54.850Z,810.02
2019-03-13T00:06:54.861Z,810.00
2019-03-13T00:07:54.863Z,809.99
2019-03-13T00:08:54.872Z,809.98
2019-03-13T00:09:54.886Z,809.91
2019-03-13T00:10:54.891Z,809.91
2019-03-13T00:11:54.895Z,809.97
2019-03-13T00:12:54.908Z,809.93
2019-03-13T00:13:54.914Z,809.88
2019-03-13T00:14:54.923Z,809.82
2019-03-13T00:15:54.930Z,809.87
2019-03-13T00:16:54.938Z,809.89
2019-03-13T00:17:54.949Z,809.89
2019-03-13T00:18:54.956Z,809.96
2019-03-13T00:19:54.958Z,810.02
2019-03-13T00:20:54.974Z,809.96
2019-03-13T00:21:54.978Z,809.96
2019-03-13T00:22:54.986Z,810.00
2019-03-13T00:23:54.997Z,810.05
2019-03-13T00:24:56.237Z,810.02
2019-03-13T00:25:55.009Z,809.98
2019-03-13T00:26:55.019Z,810.06
2019-03-13T00:27:55.028Z,810.11
2019-03-13T00:28:55.058Z,810.02
2019-03-13T00:29:55.040Z,809.99
2019-03-13T00:30:55.050Z,810.04
2019-03-13T00:31:55.053Z,810.12
2019-03-13T00:32:55.061Z,810.00
2019-03-13T00:33:55.072Z,809.94
2019-03-13T00:34:55.078Z,809.92
2019-03-13T00:35:55.087Z,810.03
2019-03-13T00:36:55.091Z,809.88
2019-03-13T00:37:55.100Z,810.03
2019-03-13T00:38:55.108Z,809.92
2019-03-13T00:39:55.116Z,809.92
2019-03-13T00:40:55.131Z,809.67
2019-03-13T00:41:55.133Z,809.82
2019-03-13T00:42:55.139Z,809.77
2019-03-13T00:43:55.145Z,809.81
2019-03-13T00:44:55.156Z,809.98
2019-03-13T00:45:55.162Z,809.89
2019-03-13T00:46:55.169Z,809.63
2019-03-13T00:47:55.180Z,809.74
2019-03-13T00:48:55.186Z,809.72
2019-03-13T00:49:55.195Z,809.78
2019-03-13T00:50:55.201Z,809.81
2019-03-13T00:51:55.205Z,809.74
2019-03-13T00:52:55.215Z,809.73
2019-03-13T00:53:55.220Z,809.80
2019-03-13T00:54:55.228Z,809.69
2019-03-13T00:55:55.234Z,809.70
2019-03-13T00:56:55.245Z,809.71
2019-03-13T00:57:55.255Z,809.72
2019-03-13T00:58:55.258Z,809.78
2019-03-13T00:59:55.268Z,809.76
2019-03-13T01:00:55.271Z,809.61
2019-03-13T01:01:55.291Z,809.68
2019-03-13T01:02:55.287Z,809.69
2019-03-13T01:03:55.296Z,809.69
2019-03-13T01:04:55.305Z,809.73
2019-03-13T01:05:55.317Z,809.78
2019-03-13T01:06:55.316Z,809.72
2019-03-13T01:07:55.326Z,809.79
2019-03-13T01:08:55.332Z,809.79
2019-03-13T01:09:55.338Z,809.72
2019-03-13T01:10:55.349Z,809.74
2019-03-13T01:11:55.356Z,809.65
2019-03-13T01:12:55.359Z,809.70
2019-03-13T01:13:55.368Z,809.75
2019-03-13T01:14:55.377Z,809.76
2019-03-13T01:15:55.384Z,809.83
2019-03-13T01:16:55.396Z,809.80
2019-03-13T01:17:55.403Z,809.77
2019-03-13T01:18:55.411Z,809.71
2019-03-13T01:19:55.414Z,809.84
2019-03-13T01:20:55.419Z,809.98
2019-03-13T01:21:55.435Z,809.84
2019-03-13T01:22:55.437Z,809.78
2019-03-13T01:23:55.441Z,809.67
2019-03-13T01:24:55.449Z,809.83
2019-03-13T01:25:55.455Z,809.93
2019-03-13T01:26:55.469Z,809.77
2019-03-13T01:27:55.472Z,809.86
2019-03-13T01:28:55.484Z,809.72
2019-03-13T01:29:55.488Z,809.81
2019-03-13T01:30:55.493Z,809.72
2019-03-13T01:31:55.577Z,809.67
2019-03-13T01:32:55.510Z,809.69
2019-03-13T01:33:55.515Z,809.78
2019-03-13T01:34:55.521Z,809.75
2019-03-13T01:35:55.526Z,809.74
2019-03-13T01:36:55.533Z,809.65
2019-03-13T01:37:55.544Z,809.69
2019-03-13T01:38:55.552Z,809.68
2019-03-13T01:39:55.557Z,809.66
2019-03-13T01:40:55.561Z,809.67
2019-03-13T01:41:55.569Z,809.65
2019-03-13T01:42:55.577Z,809.66
2019-03-13T01:43:55.583Z,809.61
2019-03-13T01:44:55.589Z,809.68
2019-03-13T01:45:55.600Z,809.82
2019-03-13T01:46:55.613Z,809.84
2019-03-13T01:47:55.612Z,809.83
2019-03-13T01:48:55.619Z,809.89
2019-03-13T01:49:55.623Z,809.91
2019-03-13T01:50:55.630Z,809.87
2019-03-13T01:51:55.637Z,809.76
2019-03-13T01:52:55.647Z,809.88
2019-03-13T01:53:55.650Z,809.93
2019-03-13T01:54:55.671Z,809.98
2019-03-13T01:55:55.668Z,809.91
2019-03-13T01:56:55.673Z,809.86
2019-03-13T01:57:55.687Z,809.86
2019-03-13T01:58:55.683Z,809.89
2019-03-13T01:59:55.694Z,809.93
2019-03-13T02:00:55.699Z,809.94
2019-03-13T02:01:55.705Z,809.83
2019-03-13T02:02:55.712Z,809.80
2019-03-13T02:03:55.714Z,809.78
2019-03-13T02:04:55.727Z,809.80
2019-03-13T02:05:55.729Z,809.80
2019-03-13T02:06:55.740Z,809.82
2019-03-13T02:07:55.746Z,809.83
2019-03-13T02:08:55.754Z,809.81
2019-03-13T02:09:55.760Z,809.83
2019-03-13T02:10:55.766Z,809.91
2019-03-13T02:11:55.771Z,809.89
2019-03-13T02:12:55.775Z,809.89
2019-03-13T02:13:55.781Z,809.90
2019-03-13T02:14:55.878Z,809.98
2019-03-13T02:15:55.797Z,809.98
2019-03-13T02:16:55.801Z,810.01
2019-03-13T02:17:55.811Z,810.02
2019-03-13T02:18:55.815Z,810.02
2019-03-13T02:19:55.821Z,809.96
2019-03-13T02:20:55.837Z,809.95
2019-03-13T02:21:55.837Z,809.91
2019-03-13T02:22:55.844Z,809.92
2019-03-13T02:23:55.848Z,809.97
2019-03-13T02:24:55.857Z,809.93
2019-03-13T02:25:55.866Z,809.92
2019-03-13T02:26:55.867Z,809.84
2019-03-13T02:27:55.872Z,809.86
2019-03-13T02:28:55.880Z,809.91
2019-03-13T02:29:55.886Z,809.95
2019-03-13T02:30:55.900Z,809.95
2019-03-13T02:31:55.901Z,809.93
2019-03-13T02:32:55.907Z,809.97
2019-03-13T02:33:55.912Z,809.94
2019-03-13T02:34:55.920Z,810.00
2019-03-13T02:35:55.924Z,810.00
2019-03-13T02:36:55.933Z,809.94
2019-03-13T02:37:55.956Z,809.90
2019-03-13T02:38:55.953Z,809.95
2019-03-13T02:39:55.950Z,809.93
2019-03-13T02:40:55.984Z,809.97
2019-03-13T02:41:55.968Z,809.99
2019-03-13T02:42:55.969Z,809.92
2019-03-13T02:43:55.973Z,809.90
2019-03-13T02:44:55.986Z,809.96
2019-03-13T02:45:55.997Z,809.96
2019-03-13T02:46:56.002Z,809.94
2019-03-13T02:47:56.005Z,809.91
2019-03-13T02:48:56.006Z,809.98
2019-03-13T02:49:56.015Z,809.95
2019-03-13T02:50:56.022Z,809.90
2019-03-13T02:51:56.026Z,810.05
2019-03-13T02:52:56.035Z,809.90
2019-03-13T02:53:56.036Z,809.93
2019-03-13T02:54:56.042Z,810.04
2019-03-13T02:55:56.055Z,810.01
2019-03-13T02:56:56.057Z,809.96
2019-03-13T02:57:56.067Z,810.03
2019-03-13T02:58:56.072Z,809.96
2019-03-13T02:59:56.077Z,809.97
2019-03-13T03:00:56.083Z,809.99
2019-03-13T03:01:56.088Z,810.01
2019-03-13T03:02:56.092Z,810.01
2019-03-13T03:03:56.097Z,810.05
2019-03-13T03:04:56.105Z,810.07
2019-03-13T03:05:56.109Z,810.08
2019-03-13T03:06:56.116Z,810.09
2019-03-13T03:07:56.120Z,810.13
2019-03-13T03:08:56.129Z,810.12
2019-03-13T03:09:56.133Z,810.11
2019-03-13T03:10:56.158Z,810.16
2019-03-13T03:11:56.147Z,810.12
2019-03-13T03:12:57.756Z,810.17
2019-03-13T03:13:56.156Z,810.17
2019-03-13T03:14:56.167Z,810.07
2019-03-13T03:15:56.182Z,810.07
2019-03-13T03:16:56.178Z,810.12
2019-03-13T03:17:56.182Z,810.10
2019-03-13T03:18:56.195Z,810.19
2019-03-13T03:19:56.193Z,810.14
2019-03-13T03:20:56.197Z,810.15
2019-03-13T03:21:56.210Z,810.13
2019-03-13T03:22:56.229Z,810.13
2019-03-13T03:23:56.221Z,810.13
2019-03-13T03:24:56.221Z,810.08
2019-03-13T03:25:56.253Z,810.12
2019-03-13T03:26:56.234Z,810.07
2019-03-13T03:27:56.242Z,810.09
2019-03-13T03:28:56.248Z,810.11
2019-03-13T03:29:56.250Z,810.15
2019-03-13T03:30:56.259Z,810.14
2019-03-13T03:31:56.262Z,810.16
2019-03-13T03:32:56.270Z,810.17
2019-03-13T03:33:56.293Z,810.19
2019-03-13T03:34:56.387Z,810.19
2019-03-13T03:35:56.291Z,810.22
2019-03-13T03:36:56.294Z,810.19
2019-03-13T03:37:56.313Z,810.22
2019-03-13T03:38:56.309Z,810.18
2019-03-13T03:39:56.313Z,810.19
2019-03-13T03:40:56.323Z,810.25
2019-03-13T03:41:56.321Z,810.21
2019-03-13T03:42:56.336Z,810.22
2019-03-13T03:43:56.351Z,810.25
2019-03-13T03:44:56.346Z,810.26
2019-03-13T03:45:56.345Z,810.21
2019-03-13T03:46:56.352Z,810.18
2019-03-13T03:47:56.363Z,810.16
2019-03-13T03:48:56.364Z,810.18
2019-03-13T03:49:56.372Z,810.16
2019-03-13T03:50:56.419Z,810.16
2019-03-13T03:51:56.397Z,810.18
2019-03-13T03:52:56.385Z,810.17
2019-03-13T03:53:56.397Z,810.22
2019-03-13T03:54:56.395Z,810.22
2019-03-13T03:55:56.409Z,810.21
2019-03-13T03:56:56.415Z,810.23
2019-03-13T03:57:56.420Z,810.23
2019-03-13T03:58:56.424Z,810.22
2019-03-13T03:59:56.428Z,810.27
2019-03-13T04:00:56.436Z,810.41
2019-03-13T04:01:56.443Z,810.32
2019-03-13T04:02:56.446Z,810.34
2019-03-13T04:03:56.455Z,810.39
2019-03-13T04:04:56.461Z,810.38
2019-03-13T04:05:56.462Z,810.35
2019-03-13T04:06:56.473Z,810.32
2019-03-13T04:07:56.475Z,810.29
2019-03-13T04:08:56.479Z,810.23
2019-03-13T04:09:56.487Z,810.24
2019-03-13T04:10:56.506Z,810.28
2019-03-13T04:11:56.503Z,810.31
2019-03-13T04:12:56.501Z,810.33
2019-03-13T04:13:56.516Z,810.36
2019-03-13T04:14:56.513Z,810.38
2019-03-13T04:15:56.525Z,810.38
2019-03-13T04:16:56.523Z,810.42
2019-03-13T04:17:56.533Z,810.40
2019-03-13T04:18:56.536Z,810.43
2019-03-13T04:19:56.546Z,810.39
2019-03-13T04:20:56.550Z,810.37
2019-03-13T04:21:56.559Z,810.36
2019-03-13T04:22:56.562Z,810.29
2019-03-13T04:23:56.567Z,810.31
2019-03-13T04:24:56.569Z,810.32
2019-03-13T04:25:56.572Z,810.31
2019-03-13T04:26:56.580Z,810.27
2019-03-13T04:27:56.604Z,810.26
2019-03-13T04:28:56.593Z,810.27
2019-03-13T04:29:56.598Z,810.21
2019-03-13T04:30:56.603Z,810.19
2019-03-13T04:31:56.608Z,810.12
2019-03-13T04:32:56.609Z,810.14
2019-03-13T04:33:56.614Z,810.13
2019-03-13T04:34:56.626Z,810.09
2019-03-13T04:35:56.628Z,810.13
2019-03-13T04:36:56.629Z,810.16
2019-03-13T04:37:56.633Z,810.18
2019-03-13T04:38:56.645Z,810.19
2019-03-13T04:39:56.649Z,810.19
2019-03-13T04:40:56.648Z,810.15
2019-03-13T04:41:56.653Z,810.24
2019-03-13T04:42:56.665Z,810.18
2019-03-13T04:43:56.663Z,810.19
2019-03-13T04:44:56.668Z,810.19
2019-03-13T04:45:56.672Z,810.17
2019-03-13T04:46:56.680Z,810.11
2019-03-13T04:47:56.683Z,810.10
2019-03-13T04:48:56.689Z,810.21
2019-03-13T04:49:56.694Z,810.14
2019-03-13T04:50:56.699Z,810.08
2019-03-13T04:51:56.706Z,810.08
2019-03-13T04:52:56.713Z,810.14
2019-03-13T04:53:56.714Z,810.11
2019-03-13T04:54:56.719Z,810.09
2019-03-13T04:55:56.721Z,810.02
2019-03-13T04:56:56.725Z,810.08
2019-03-13T04:57:56.735Z,810.00
2019-03-13T04:58:56.740Z,810.11
2019-03-13T04:59:56.743Z,810.11
2019-03-13T05:00:56.748Z,810.00
2019-03-13T05:01:56.754Z,809.97
2019-03-13T05:02:56.759Z,809.95
2019-03-13T05:03:56.760Z,809.88
2019-03-13T05:04:56.764Z,809.92
2019-03-13T05:05:56.771Z,809.97
2019-03-13T05:06:56.775Z,809.93
2019-03-13T05:07:56.778Z,809.95
2019-03-13T05:08:56.787Z,809.94
2019-03-13T05:09:56.793Z,810.00
2019-03-13T05:10:56.803Z,810.01
2019-03-13T05:11:56.799Z,810.00
2019-03-13T05:12:56.904Z,809.97
2019-03-13T05:13:56.808Z,809.91
2019-03-13T05:14:56.813Z,809.95
2019-03-13T05:15:56.816Z,809.98
2019-03-13T05:16:56.822Z,809.95
2019-03-13T05:17:56.831Z,809.96
2019-03-13T05:18:56.837Z,809.87
2019-03-13T05:19:56.845Z,809.95
2019-03-13T05:20:56.845Z,809.92
2019-03-13T05:21:56.871Z,809.92
2019-03-13T05:22:56.853Z,809.82
2019-03-13T05:23:56.856Z,809.93
2019-03-13T05:24:56.858Z,809.87
2019-03-13T05:25:56.867Z,809.82
2019-03-13T05:26:56.869Z,809.87
2019-03-13T05:27:56.874Z,809.87
2019-03-13T05:28:56.880Z,809.89
2019-03-13T05:29:56.889Z,809.93
2019-03-13T05:30:56.890Z,809.88
2019-03-13T05:31:56.891Z,809.85
2019-03-13T05:32:56.894Z,809.72
2019-03-13T05:33:56.902Z,809.96
2019-03-13T05:34:56.908Z,810.02
2019-03-13T05:35:56.910Z,809.89
2019-03-13T05:36:56.917Z,809.92
2019-03-13T05:37:56.920Z,809.93
2019-03-13T05:38:56.922Z,809.91
2019-03-13T05:39:56.929Z,809.88
2019-03-13T05:40:56.929Z,809.94
2019-03-13T05:41:56.974Z,809.93
2019-03-13T05:42:56.938Z,809.96
2019-03-13T05:43:56.943Z,809.92
2019-03-13T05:44:56.954Z,809.85
2019-03-13T05:45:56.959Z,809.99
2019-03-13T05:46:56.956Z,810.01
2019-03-13T05:47:56.958Z,810.09
2019-03-13T05:48:56.968Z,810.07
2019-03-13T05:49:56.972Z,810.08
2019-03-13T05:50:56.973Z,810.07
2019-03-13T05:51:56.977Z,810.04
2019-03-13T05:52:56.983Z,810.11
2019-03-13T05:53:56.997Z,810.11
2019-03-13T05:54:56.989Z,810.10
2019-03-13T05:55:56.994Z,810.09
2019-03-13T05:56:57.110Z,810.16
2019-03-13T05:57:57.003Z,810.11
2019-03-13T05:58:57.008Z,810.09
2019-03-13T05:59:57.013Z,810.10
2019-03-13T06:00:57.015Z,810.07
2019-03-13T06:01:57.117Z,810.12
2019-03-13T06:02:57.024Z,810.13
2019-03-13T06:03:57.025Z,810.21
2019-03-13T06:04:57.029Z,810.08
2019-03-13T06:05:57.036Z,810.21
2019-03-13T06:06:57.041Z,810.24
2019-03-13T06:07:57.045Z,810.18
2019-03-13T06:08:57.049Z,810.24
2019-03-13T06:09:57.055Z,810.21
2019-03-13T06:10:57.056Z,810.21
2019-03-13T06:11:57.061Z,810.22
2019-03-13T06:12:57.063Z,810.23
2019-03-13T06:13:57.068Z,810.21
2019-03-13T06:14:57.068Z,810.17
2019-03-13T06:15:57.076Z,810.17
2019-03-13T06:16:57.075Z,810.23
2019-03-13T06:17:57.080Z,810.17
2019-03-13T06:18:57.089Z,810.23
2019-03-13T06:19:57.090Z,810.27
2019-03-13T06:20:57.092Z,810.29
2019-03-13T06:21:57.096Z,810.14
2019-03-13T06:22:57.103Z,810.19
2019-03-13T06:23:57.106Z,810.25
2019-03-13T06:24:57.105Z,810.22
2019-03-13T06:25:57.110Z,810.22
2019-03-13T06:26:57.113Z,810.24
2019-03-13T06:27:57.116Z,810.25
2019-03-13T06:28:57.199Z,810.29
2019-03-13T06:29:57.124Z,810.30
2019-03-13T06:30:57.230Z,810.32
2019-03-13T06:31:57.132Z,810.40
2019-03-13T06:32:57.136Z,810.29
2019-03-13T06:33:57.140Z,810.38
2019-03-13T06:34:57.151Z,810.42
2019-03-13T06:35:57.146Z,810.42
2019-03-13T06:36:57.151Z,810.36
2019-03-13T06:37:57.154Z,810.38
2019-03-13T06:38:57.160Z,810.42
2019-03-13T06:39:57.161Z,810.46
2019-03-13T06:40:57.219Z,810.49
2019-03-13T06:41:57.173Z,810.52
2019-03-13T06:42:57.178Z,810.51
2019-03-13T06:43:57.179Z,810.49
2019-03-13T06:44:57.180Z,810.53
2019-03-13T06:45:57.184Z,810.54
2019-03-13T06:46:57.196Z,810.53
2019-03-13T06:47:57.194Z,810.52
2019-03-13T06:48:57.196Z,810.59
2019-03-13T06:49:57.201Z,810.58
2019-03-13T06:50:57.206Z,810.57
2019-03-13T06:51:57.206Z,810.63
2019-03-13T06:52:57.217Z,810.64
2019-03-13T06:53:57.215Z,810.61
2019-03-13T06:54:57.224Z,810.60
2019-03-13T06:55:57.224Z,810.64
2019-03-13T06:56:57.233Z,810.62
2019-03-13T06:57:57.238Z,810.60
2019-03-13T06:58:57.236Z,810.58
2019-03-13T06:59:57.334Z,810.63
2019-03-13T07:00:57.245Z,810.63
2019-03-13T07:01:57.252Z,810.64
2019-03-13T07:02:57.251Z,810.66
2019-03-13T07:03:57.255Z,810.66
2019-03-13T07:04:57.257Z,810.68
2019-03-13T07:05:57.262Z,810.68
2019-03-13T07:06:57.267Z,810.75
2019-03-13T07:07:57.274Z,810.81
2019-03-13T07:08:57.274Z,810.76
2019-03-13T07:09:57.283Z,810.75
2019-03-13T07:10:57.288Z,810.75
2019-03-13T07:11:57.289Z,810.75
2019-03-13T07:12:57.291Z,810.77
2019-03-13T07:13:57.295Z,810.78
2019-03-13T07:14:57.313Z,810.79
2019-03-13T07:15:57.310Z,810.86
2019-03-13T07:16:57.309Z,810.82
2019-03-13T07:17:57.312Z,810.77
2019-03-13T07:18:57.318Z,810.84
2019-03-13T07:19:57.321Z,810.80
2019-03-13T07:20:57.325Z,810.77
2019-03-13T07:21:57.329Z,810.82
2019-03-13T07:22:57.338Z,810.73
2019-03-13T07:23:57.340Z,810.77
2019-03-13T07:24:57.339Z,810.77
2019-03-13T07:25:57.417Z,810.74
2019-03-13T07:26:57.352Z,810.73
2019-03-13T07:27:57.355Z,810.67
2019-03-13T07:28:57.356Z,810.64
2019-03-13T07:29:57.362Z,810.71
2019-03-13T07:30:57.367Z,810.67
2019-03-13T07:31:57.366Z,810.64
2019-03-13T07:32:57.375Z,810.64
2019-03-13T07:33:57.384Z,810.68
2019-03-13T07:34:57.379Z,810.65
2019-03-13T07:35:57.382Z,810.61
2019-03-13T07:36:57.390Z,810.49
2019-03-13T07:37:57.394Z,810.54
2019-03-13T07:38:57.398Z,810.56
2019-03-13T07:39:57.402Z,810.60
2019-03-13T07:40:57.403Z,810.69
2019-03-13T07:41:57.411Z,810.65
2019-03-13T07:42:57.416Z,810.66
2019-03-13T07:43:57.417Z,810.69
2019-03-13T07:44:57.419Z,810.63
2019-03-13T07:45:57.423Z,810.70
2019-03-13T07:46:57.427Z,810.64
2019-03-13T07:47:57.430Z,810.69
2019-03-13T07:48:57.435Z,810.54
2019-03-13T07:49:57.438Z,810.65
2019-03-13T07:50:57.442Z,810.59
2019-03-13T07:51:57.446Z,810.54
2019-03-13T07:52:57.453Z,810.48
2019-03-13T07:53:57.455Z,810.61
2019-03-13T07:54:57.462Z,810.63
2019-03-13T07:55:57.464Z,810.69
2019-03-13T07:56:57.467Z,810.71
2019-03-13T07:57:57.474Z,810.71
2019-03-13T07:58:57.480Z,810.74
2019-03-13T07:59:57.479Z,810.74
2019-03-13T08:00:57.487Z,810.69
2019-03-13T08:01:57.492Z,810.76
2019-03-13T08:02:57.497Z,810.74
2019-03-13T08:03:57.496Z,810.74
2019-03-13T08:04:57.500Z,810.77
2019-03-13T08:05:57.509Z,810.72
2019-03-13T08:06:57.510Z,810.78
2019-03-13T08:07:57.514Z,810.81
2019-03-13T08:08:57.522Z,810.74
2019-03-13T08:09:57.527Z,810.78
2019-03-13T08:10:57.526Z,810.73
2019-03-13T08:11:57.530Z,810.72
2019-03-13T08:12:57.536Z,810.69
2019-03-13T08:13:57.539Z,810.78
2019-03-13T08:14:57.547Z,810.78
2019-03-13T08:15:57.547Z,810.73
2019-03-13T08:16:57.550Z,810.70
2019-03-13T08:17:57.559Z,810.65
2019-03-13T08:18:57.564Z,810.69
2019-03-13T08:19:57.564Z,810.72
2019-03-13T08:20:57.572Z,810.68
2019-03-13T08:21:57.576Z,810.61
2019-03-13T08:22:57.582Z,810.67
2019-03-13T08:23:57.584Z,810.73
2019-03-13T08:24:57.590Z,810.65
2019-03-13T08:25:57.605Z,810.77
2019-03-13T08:26:57.598Z,810.74
2019-03-13T08:27:57.604Z,810.89
2019-03-13T08:28:57.608Z,810.82
2019-03-13T08:29:57.617Z,810.81
2019-03-13T08:30:57.615Z,810.91
2019-03-13T08:31:57.618Z,810.78
2019-03-13T08:32:57.623Z,810.89
2019-03-13T08:33:57.625Z,810.80
2019-03-13T08:34:57.633Z,810.84
2019-03-13T08:35:57.635Z,810.81
2019-03-13T08:36:57.643Z,810.82
2019-03-13T08:37:57.643Z,810.86
2019-03-13T08:38:57.653Z,810.76
2019-03-13T08:39:57.658Z,810.74
2019-03-13T08:40:57.662Z,810.74
2019-03-13T08:41:57.665Z,810.86
2019-03-13T08:42:57.667Z,810.77
2019-03-13T08:43:57.670Z,810.80
2019-03-13T08:44:57.675Z,810.91
2019-03-13T08:45:57.685Z,810.73
2019-03-13T08:46:57.699Z,810.79
2019-03-13T08:47:57.692Z,810.89
2019-03-13T08:48:57.697Z,810.87
2019-03-13T08:49:57.698Z,810.89
2019-03-13T08:50:57.713Z,810.92
2019-03-13T08:51:57.712Z,810.91
2019-03-13T08:52:57.713Z,810.96
2019-03-13T08:53:57.720Z,810.96
2019-03-13T08:54:57.724Z,810.90
2019-03-13T08:55:57.726Z,810.84
2019-03-13T08:56:57.736Z,810.83
2019-03-13T08:57:57.737Z,810.85
2019-03-13T08:58:57.742Z,810.81
2019-03-13T08:59:57.750Z,810.82
2019-03-13T09:00:57.753Z,810.85
2019-03-13T09:01:57.761Z,810.96
2019-03-13T09:02:57.766Z,810.89
2019-03-13T09:03:57.853Z,810.93
2019-03-13T09:04:57.772Z,810.92
2019-03-13T09:05:57.780Z,810.92
2019-03-13T09:06:57.784Z,810.87
2019-03-13T09:07:57.786Z,810.84
2019-03-13T09:08:57.792Z,810.82
2019-03-13T09:09:57.796Z,810.79
2019-03-13T09:10:57.802Z,810.82
2019-03-13T09:11:57.806Z,810.77
2019-03-13T09:13:01.383Z,810.80
2019-03-13T09:13:57.815Z,810.75
2019-03-13T09:14:57.823Z,810.73
2019-03-13T09:15:57.825Z,810.66
2019-03-13T09:16:57.833Z,810.71
2019-03-13T09:17:57.838Z,810.77
2019-03-13T09:18:57.845Z,810.77
2019-03-13T09:19:57.843Z,810.72
2019-03-13T09:20:57.852Z,810.68
2019-03-13T09:21:57.855Z,810.72
2019-03-13T09:22:57.859Z,810.73
2019-03-13T09:23:57.864Z,810.71
2019-03-13T09:25:10.763Z,810.72
2019-03-13T09:25:57.875Z,810.64
2019-03-13T09:26:57.886Z,810.61
2019-03-13T09:27:57.885Z,810.69
2019-03-13T09:28:57.891Z,810.74
2019-03-13T09:29:57.896Z,810.66
2019-03-13T09:30:57.903Z,810.78
2019-03-13T09:31:57.906Z,810.68
2019-03-13T09:32:57.916Z,810.67
2019-03-13T09:33:57.949Z,810.72
2019-03-13T09:34:57.923Z,810.66
2019-03-13T09:35:57.932Z,810.78
2019-03-13T09:36:57.934Z,810.59
2019-03-13T09:37:57.941Z,810.60
2019-03-13T09:38:57.951Z,810.61
2019-03-13T09:39:57.952Z,810.61
2019-03-13T09:40:57.960Z,810.68
2019-03-13T09:41:57.971Z,810.61
2019-03-13T09:42:57.974Z,810.61
2019-03-13T09:43:59.805Z,810.62
2019-03-13T09:44:57.982Z,810.65
2019-03-13T09:45:57.993Z,810.63
2019-03-13T09:46:57.994Z,810.73
2019-03-13T09:47:57.998Z,810.73
2019-03-13T09:48:58.004Z,810.70
2019-03-13T09:49:58.032Z,810.70
2019-03-13T09:50:58.021Z,810.71
2019-03-13T09:51:58.028Z,810.77
2019-03-13T09:52:58.028Z,810.74
2019-03-13T09:53:58.039Z,810.78
2019-03-13T09:54:58.044Z,810.69
2019-03-13T09:55:58.045Z,810.76
2019-03-13T09:56:58.050Z,810.67
2019-03-13T09:57:58.056Z,810.67
2019-03-13T09:58:58.062Z,810.72
2019-03-13T09:59:58.069Z,810.71
2019-03-13T10:00:58.083Z,810.67
2019-03-13T10:01:58.079Z,810.64
2019-03-13T10:02:58.089Z,810.68
2019-03-13T10:03:58.092Z,810.62
2019-03-13T10:04:58.094Z,810.62
2019-03-13T10:05:58.105Z,810.57
2019-03-13T10:06:58.110Z,810.59
2019-03-13T10:07:58.113Z,810.57
2019-03-13T10:08:58.120Z,810.62
2019-03-13T10:09:58.125Z,810.66
2019-03-13T10:10:58.131Z,810.58
2019-03-13T10:11:58.135Z,810.56
2019-03-13T10:12:58.147Z,810.60
2019-03-13T10:13:58.161Z,810.58
2019-03-13T10:14:58.162Z,810.64
2019-03-13T10:15:58.167Z,810.63
2019-03-13T10:17:09.901Z,810.68
2019-03-13T10:17:58.175Z,810.69
2019-03-13T10:18:58.182Z,810.69
2019-03-13T10:19:58.189Z,810.64
2019-03-13T10:20:58.196Z,810.64
2019-03-13T10:21:58.208Z,810.65
2019-03-13T10:22:58.214Z,810.71
2019-03-13T10:23:58.217Z,810.76
2019-03-13T10:24:58.224Z,810.85
2019-03-13T10:25:58.232Z,810.85
2019-03-13T10:26:58.244Z,810.84
2019-03-13T10:27:58.245Z,810.80
2019-03-13T10:28:58.253Z,810.83
2019-03-13T10:29:58.268Z,810.83
2019-03-13T10:30:58.271Z,810.83
2019-03-13T10:31:58.276Z,810.75
2019-03-13T10:32:58.282Z,810.78
2019-03-13T10:33:58.292Z,810.76
2019-03-13T10:34:58.297Z,810.70
2019-03-13T10:35:58.307Z,810.75
2019-03-13T10:36:58.316Z,810.79
2019-03-13T10:37:58.319Z,810.75
2019-03-13T10:38:58.325Z,810.76
2019-03-13T10:39:58.334Z,810.80
2019-03-13T10:40:58.343Z,810.79
2019-03-13T10:41:58.900Z,810.73
2019-03-13T10:42:58.352Z,810.80
2019-03-13T10:43:58.361Z,810.76
2019-03-13T10:44:58.370Z,810.78
2019-03-13T10:45:58.373Z,810.77
2019-03-13T10:46:58.384Z,810.80
2019-03-13T10:47:58.386Z,810.80
2019-03-13T10:48:58.396Z,810.84
2019-03-13T10:49:58.402Z,810.82
2019-03-13T10:50:58.409Z,810.93
2019-03-13T10:51:58.417Z,810.84
2019-03-13T10:52:58.427Z,810.81
2019-03-13T10:53:58.430Z,810.82
2019-03-13T10:54:58.441Z,810.75
2019-03-13T10:55:58.448Z,810.71
2019-03-13T10:56:58.452Z,810.75
2019-03-13T10:57:58.462Z,810.71
2019-03-13T10:58:58.471Z,810.83
2019-03-13T10:59:58.475Z,810.74
2019-03-13T11:00:58.495Z,810.82
2019-03-13T11:01:58.487Z,810.85
2019-03-13T11:02:58.503Z,810.77
2019-03-13T11:03:58.504Z,810.77
2019-03-13T11:04:58.512Z,810.72
2019-03-13T11:05:58.517Z,810.63
2019-03-13T11:06:58.524Z,810.61
2019-03-13T11:07:58.533Z,810.73
2019-03-13T11:08:58.537Z,810.73
2019-03-13T11:09:58.544Z,810.67
2019-03-13T11:10:58.552Z,810.71
2019-03-13T11:11:58.562Z,810.81
2019-03-13T11:12:58.568Z,810.82
2019-03-13T11:13:58.572Z,810.74
2019-03-13T11:14:58.597Z,810.74
2019-03-13T11:15:58.592Z,810.70
2019-03-13T11:16:58.593Z,810.80
2019-03-13T11:17:58.600Z,810.74
2019-03-13T11:18:58.611Z,810.78
2019-03-13T11:19:58.619Z,810.81
2019-03-13T11:20:58.626Z,810.77
2019-03-13T11:21:58.628Z,810.84
2019-03-13T11:22:58.640Z,810.73
2019-03-13T11:24:00.884Z,810.79
2019-03-13T11:24:58.654Z,810.83
2019-03-13T11:25:58.659Z,810.78
2019-03-13T11:26:58.664Z,810.86
2019-03-13T11:27:58.672Z,810.77
2019-03-13T11:28:58.678Z,810.71
2019-03-13T11:29:58.682Z,810.67
2019-03-13T11:30:58.802Z,810.73
2019-03-13T11:31:58.697Z,810.73
2019-03-13T11:32:58.710Z,810.75
2019-03-13T11:33:58.713Z,810.72
2019-03-13T11:34:58.725Z,810.74
2019-03-13T11:35:58.729Z,810.65
2019-03-13T11:36:58.736Z,810.78
2019-03-13T11:37:58.744Z,810.76
2019-03-13T11:38:58.758Z,810.79
2019-03-13T11:39:58.763Z,810.79
2019-03-13T11:40:58.773Z,810.71
2019-03-13T11:41:58.778Z,810.60
2019-03-13T11:42:58.787Z,810.64
2019-03-13T11:43:58.790Z,810.63
2019-03-13T11:44:58.801Z,810.70
2019-03-13T11:45:58.807Z,810.73
2019-03-13T11:46:58.814Z,810.73
2019-03-13T11:47:58.821Z,810.66
2019-03-13T11:48:58.828Z,810.71
2019-03-13T11:49:58.841Z,810.70
2019-03-13T11:50:58.945Z,810.72
2019-03-13T11:51:58.855Z,810.65
2019-03-13T11:52:58.861Z,810.69
2019-03-13T11:53:58.869Z,810.70
2019-03-13T11:54:58.876Z,810.67
2019-03-13T11:55:58.887Z,810.70
2019-03-13T11:56:58.893Z,810.69
2019-03-13T11:57:58.905Z,810.64
2019-03-13T11:58:58.917Z,810.70
2019-03-13T11:59:58.914Z,810.74
2019-03-13T12:00:58.926Z,810.65
2019-03-13T12:01:58.934Z,810.61
2019-03-13T12:02:58.938Z,810.65
2019-03-13T12:03:58.949Z,810.63
2019-03-13T12:04:58.957Z,810.56
2019-03-13T12:05:58.963Z,810.50
2019-03-13T12:06:58.974Z,810.57
2019-03-13T12:07:58.977Z,810.52
2019-03-13T12:08:58.983Z,810.54
2019-03-13T12:09:58.995Z,810.49
2019-03-13T12:10:58.999Z,810.45
2019-03-13T12:11:59.009Z,810.45
2019-03-13T12:12:59.016Z,810.42
2019-03-13T12:13:59.022Z,810.42
2019-03-13T12:14:59.031Z,810.43
2019-03-13T12:15:59.034Z,810.39
2019-03-13T12:16:59.046Z,810.37
2019-03-13T12:17:59.048Z,810.40
2019-03-13T12:18:59.056Z,810.30
2019-03-13T12:19:59.064Z,810.32
2019-03-13T12:20:59.623Z,810.41
2019-03-13T12:21:59.082Z,810.40
2019-03-13T12:22:59.085Z,810.34
2019-03-13T12:23:59.090Z,810.26
2019-03-13T12:24:59.104Z,810.26
2019-03-13T12:25:59.110Z,810.19
2019-03-13T12:26:59.118Z,810.21
2019-03-13T12:27:59.123Z,810.22
2019-03-13T12:28:59.127Z,810.20